sensor_id;sensor_type;location;lat;lon;timestamp;pressure;altitude;pressure_sealevel;temperature;humidity
60820;BME280;46641;48.904;9.126;2023-06-19T00:00:15;98103.44;;;29.50;32.44
60820;BME280;46641;48.904;9.126;2023-06-19T00:05:06;98102.69;;;29.45;32.31
60820;BME280;46641;48.904;9.126;2023-06-19T00:09:57;98097.84;;;29.42;32.74
60820;BME280;46641;48.904;9.126;2023-06-19T00:14:48;98090.56;;;29.37;32.88
60820;BME280;46641;48.904;9.126;2023-06-19T00:19:38;98092.22;;;29.33;32.54
60820;BME280;46641;48.904;9.126;2023-06-19T00:24:28;98097.66;;;29.28;32.28
60820;BME280;46641;48.904;9.126;2023-06-19T00:29:19;98093.63;;;29.25;32.88
60820;BME280;46641;48.904;9.126;2023-06-19T00:34:09;98100.16;;;29.19;32.65
60820;BME280;46641;48.904;9.126;2023-06-19T00:38:59;98103.41;;;29.16;32.93
60820;BME280;46641;48.904;9.126;2023-06-19T00:43:49;98113.13;;;29.12;33.13
60820;BME280;46641;48.904;9.126;2023-06-19T00:48:42;98105.59;;;29.09;32.73
60820;BME280;46641;48.904;9.126;2023-06-19T00:53:32;98118.00;;;29.05;32.71
60820;BME280;46641;48.904;9.126;2023-06-19T00:58:25;98125.03;;;29.01;33.06
60820;BME280;46641;48.904;9.126;2023-06-19T01:03:16;98154.69;;;28.96;33.09
60820;BME280;46641;48.904;9.126;2023-06-19T01:13:39;98183.31;;;28.76;33.66
60820;BME280;46641;48.904;9.126;2023-06-19T01:18:32;98179.25;;;28.69;33.75
60820;BME280;46641;48.904;9.126;2023-06-19T01:23:22;98174.72;;;28.64;33.95
60820;BME280;46641;48.904;9.126;2023-06-19T01:28:13;98187.63;;;28.62;33.61
60820;BME280;46641;48.904;9.126;2023-06-19T01:33:13;98182.78;;;28.59;34.21
60820;BME280;46641;48.904;9.126;2023-06-19T01:38:05;98188.19;;;28.59;34.55
60820;BME280;46641;48.904;9.126;2023-06-19T01:42:58;98193.84;;;28.57;34.15
60820;BME280;46641;48.904;9.126;2023-06-19T01:47:51;98201.66;;;28.54;34.50
60820;BME280;46641;48.904;9.126;2023-06-19T01:52:43;98197.88;;;28.50;34.50
60820;BME280;46641;48.904;9.126;2023-06-19T01:57:33;98211.34;;;28.50;34.23
60820;BME280;46641;48.904;9.126;2023-06-19T02:02:23;98212.44;;;28.49;34.47
60820;BME280;46641;48.904;9.126;2023-06-19T02:07:14;98219.72;;;28.48;34.20
60820;BME280;46641;48.904;9.126;2023-06-19T02:12:04;98201.94;;;28.47;35.07
60820;BME280;46641;48.904;9.126;2023-06-19T02:16:55;98196.28;;;28.43;34.11
60820;BME280;46641;48.904;9.126;2023-06-19T02:21:45;98195.75;;;28.41;33.63
60820;BME280;46641;48.904;9.126;2023-06-19T02:26:35;98199.53;;;28.40;33.63
60820;BME280;46641;48.904;9.126;2023-06-19T02:31:26;98186.59;;;28.37;34.13
60820;BME280;46641;48.904;9.126;2023-06-19T02:36:16;98184.16;;;28.36;34.05
60820;BME280;46641;48.904;9.126;2023-06-19T02:41:09;98185.47;;;28.33;33.99
60820;BME280;46641;48.904;9.126;2023-06-19T02:45:59;98187.66;;;28.31;34.18
60820;BME280;46641;48.904;9.126;2023-06-19T02:50:49;98200.84;;;28.28;33.66
60820;BME280;46641;48.904;9.126;2023-06-19T02:55:40;98199.50;;;28.25;34.14
60820;BME280;46641;48.904;9.126;2023-06-19T03:00:30;98196.81;;;28.20;34.04
60820;BME280;46641;48.904;9.126;2023-06-19T03:05:20;98211.34;;;28.19;34.09
60820;BME280;46641;48.904;9.126;2023-06-19T03:10:11;98214.56;;;28.16;33.83
60820;BME280;46641;48.904;9.126;2023-06-19T03:15:01;98215.09;;;28.13;33.79
60820;BME280;46641;48.904;9.126;2023-06-19T03:19:51;98223.72;;;28.10;34.30
60820;BME280;46641;48.904;9.126;2023-06-19T03:24:42;98226.69;;;28.08;34.03
60820;BME280;46641;48.904;9.126;2023-06-19T03:29:32;98239.03;;;28.04;34.33
60820;BME280;46641;48.904;9.126;2023-06-19T03:34:22;98248.47;;;28.02;33.81
60820;BME280;46641;48.904;9.126;2023-06-19T03:39:12;98248.19;;;27.98;34.25
60820;BME280;46641;48.904;9.126;2023-06-19T03:44:03;98259.50;;;27.95;34.17
60820;BME280;46641;48.904;9.126;2023-06-19T03:48:54;98254.66;;;27.92;34.21
60820;BME280;46641;48.904;9.126;2023-06-19T03:53:44;98259.47;;;27.90;34.22
60820;BME280;46641;48.904;9.126;2023-06-19T03:58:34;98267.28;;;27.86;34.35
60820;BME280;46641;48.904;9.126;2023-06-19T04:03:25;98267.81;;;27.83;34.59
60820;BME280;46641;48.904;9.126;2023-06-19T04:08:15;98257.31;;;27.82;34.39
60820;BME280;46641;48.904;9.126;2023-06-19T04:13:06;98272.91;;;27.80;34.41
60820;BME280;46641;48.904;9.126;2023-06-19T04:17:57;98272.59;;;27.76;34.55
60820;BME280;46641;48.904;9.126;2023-06-19T04:22:47;98285.50;;;27.74;34.26
60820;BME280;46641;48.904;9.126;2023-06-19T04:27:37;98284.94;;;27.72;34.69
60820;BME280;46641;48.904;9.126;2023-06-19T04:32:27;98287.09;;;27.70;34.39
60820;BME280;46641;48.904;9.126;2023-06-19T04:37:18;98286.56;;;27.68;34.54
60820;BME280;46641;48.904;9.126;2023-06-19T04:42:09;98287.09;;;27.65;34.80
60820;BME280;46641;48.904;9.126;2023-06-19T04:47:00;98291.94;;;27.63;34.78
60820;BME280;46641;48.904;9.126;2023-06-19T04:51:53;98292.19;;;27.61;35.04
60820;BME280;46641;48.904;9.126;2023-06-19T04:56:43;98297.84;;;27.60;35.06
60820;BME280;46641;48.904;9.126;2023-06-19T05:01:33;98293.50;;;27.59;35.62
60820;BME280;46641;48.904;9.126;2023-06-19T05:06:24;98298.38;;;27.57;35.72
60820;BME280;46641;48.904;9.126;2023-06-19T05:11:14;98296.19;;;27.54;36.19
60820;BME280;46641;48.904;9.126;2023-06-19T05:16:04;98305.75;;;27.29;39.63
60820;BME280;46641;48.904;9.126;2023-06-19T05:20:55;98312.59;;;27.04;40.18
60820;BME280;46641;48.904;9.126;2023-06-19T05:25:45;98317.63;;;27.33;39.74
60820;BME280;46641;48.904;9.126;2023-06-19T05:30:35;98322.28;;;27.11;39.76
60820;BME280;46641;48.904;9.126;2023-06-19T05:35:26;98318.19;;;27.40;38.88
60820;BME280;46641;48.904;9.126;2023-06-19T05:40:16;98333.28;;;27.52;38.76
60820;BME280;46641;48.904;9.126;2023-06-19T05:45:07;98338.69;;;27.57;37.96
60820;BME280;46641;48.904;9.126;2023-06-19T05:49:57;98340.31;;;27.58;38.36
60820;BME280;46641;48.904;9.126;2023-06-19T05:54:48;98344.06;;;27.57;37.98
60820;BME280;46641;48.904;9.126;2023-06-19T05:59:38;98337.06;;;27.56;38.05
60820;BME280;46641;48.904;9.126;2023-06-19T06:04:29;98342.19;;;27.57;37.86
60820;BME280;46641;48.904;9.126;2023-06-19T06:09:20;98342.44;;;27.56;37.67
60820;BME280;46641;48.904;9.126;2023-06-19T06:14:11;98338.94;;;27.55;37.95
60820;BME280;46641;48.904;9.126;2023-06-19T06:19:01;98337.06;;;27.56;37.64
60820;BME280;46641;48.904;9.126;2023-06-19T06:23:51;98336.25;;;27.55;37.97
60820;BME280;46641;48.904;9.126;2023-06-19T06:28:42;98347.81;;;27.56;37.92
60820;BME280;46641;48.904;9.126;2023-06-19T06:33:32;98361.81;;;27.58;37.47
60820;BME280;46641;48.904;9.126;2023-06-19T06:38:22;98370.44;;;27.60;37.77
60820;BME280;46641;48.904;9.126;2023-06-19T06:43:13;98371.25;;;27.60;38.02
60820;BME280;46641;48.904;9.126;2023-06-19T06:48:04;98388.97;;;27.61;37.56
60820;BME280;46641;48.904;9.126;2023-06-19T06:52:56;98393.03;;;27.64;37.60
60820;BME280;46641;48.904;9.126;2023-06-19T06:57:47;98386.84;;;27.63;37.49
60820;BME280;46641;48.904;9.126;2023-06-19T07:02:37;98384.44;;;27.67;37.58
60820;BME280;46641;48.904;9.126;2023-06-19T07:07:29;98391.44;;;27.68;37.53
60820;BME280;46641;48.904;9.126;2023-06-19T07:12:20;98390.09;;;27.70;37.18
60820;BME280;46641;48.904;9.126;2023-06-19T07:17:10;98393.59;;;27.71;40.25
60820;BME280;46641;48.904;9.126;2023-06-19T07:22:01;98396.09;;;27.30;41.75
60820;BME280;46641;48.904;9.126;2023-06-19T07:26:51;98400.50;;;27.52;39.99
60820;BME280;46641;48.904;9.126;2023-06-19T07:31:41;98412.44;;;27.71;39.35
60820;BME280;46641;48.904;9.126;2023-06-19T07:36:35;98403.91;;;27.79;41.02
60820;BME280;46641;48.904;9.126;2023-06-19T07:41:25;98411.41;;;27.35;41.19
60820;BME280;46641;48.904;9.126;2023-06-19T07:46:15;98409.75;;;27.71;39.77
60820;BME280;46641;48.904;9.126;2023-06-19T07:51:07;98408.78;;;27.87;39.70
60820;BME280;46641;48.904;9.126;2023-06-19T07:55:57;98410.97;;;27.95;39.49
60820;BME280;46641;48.904;9.126;2023-06-19T08:00:47;98417.44;;;28.00;39.06
60820;BME280;46641;48.904;9.126;2023-06-19T08:05:38;98418.53;;;28.04;38.77
60820;BME280;46641;48.904;9.126;2023-06-19T08:10:28;98418.28;;;28.05;38.91
60820;BME280;46641;48.904;9.126;2023-06-19T08:15:18;98410.72;;;28.07;38.41
60820;BME280;46641;48.904;9.126;2023-06-19T08:20:09;98406.19;;;28.13;38.25
60820;BME280;46641;48.904;9.126;2023-06-19T08:25:00;98409.44;;;28.15;38.23
60820;BME280;46641;48.904;9.126;2023-06-19T08:29:50;98410.50;;;28.19;38.08
60820;BME280;46641;48.904;9.126;2023-06-19T08:34:40;98400.03;;;28.23;37.99
60820;BME280;46641;48.904;9.126;2023-06-19T08:39:32;98403.53;;;28.28;37.81
60820;BME280;46641;48.904;9.126;2023-06-19T08:44:22;98400.03;;;28.33;37.69
60820;BME280;46641;48.904;9.126;2023-06-19T08:49:13;98396.06;;;28.40;37.51
60820;BME280;46641;48.904;9.126;2023-06-19T08:54:05;98397.66;;;28.47;37.86
60820;BME280;46641;48.904;9.126;2023-06-19T08:58:55;98393.09;;;28.52;37.82
60820;BME280;46641;48.904;9.126;2023-06-19T09:03:46;98398.78;;;28.61;37.64
60820;BME280;46641;48.904;9.126;2023-06-19T09:08:37;98392.84;;;28.69;37.25
60820;BME280;46641;48.904;9.126;2023-06-19T09:13:28;98397.44;;;28.79;37.44
60820;BME280;46641;48.904;9.126;2023-06-19T09:18:19;98397.72;;;28.87;37.41
60820;BME280;46641;48.904;9.126;2023-06-19T09:23:11;98398.00;;;28.96;37.55
60820;BME280;46641;48.904;9.126;2023-06-19T09:28:02;98399.91;;;29.06;38.41
60820;BME280;46641;48.904;9.126;2023-06-19T09:32:52;98388.03;;;29.17;38.66
60820;BME280;46641;48.904;9.126;2023-06-19T09:37:44;98395.28;;;29.32;38.69
60820;BME280;46641;48.904;9.126;2023-06-19T09:42:37;98386.09;;;29.43;38.68
60820;BME280;46641;48.904;9.126;2023-06-19T09:47:35;98381.75;;;29.57;38.50
60820;BME280;46641;48.904;9.126;2023-06-19T09:52:25;98393.34;;;29.68;38.95
60820;BME280;46641;48.904;9.126;2023-06-19T09:57:16;98379.81;;;29.78;38.70
60820;BME280;46641;48.904;9.126;2023-06-19T10:02:07;98387.19;;;29.37;39.68
60820;BME280;46641;48.904;9.126;2023-06-19T10:06:58;98385.03;;;29.34;40.07
60820;BME280;46641;48.904;9.126;2023-06-19T10:11:52;98386.63;;;29.45;39.60
60820;BME280;46641;48.904;9.126;2023-06-19T10:16:42;98384.19;;;29.64;39.65
60820;BME280;46641;48.904;9.126;2023-06-19T10:21:47;98387.31;;;29.87;39.84
60820;BME280;46641;48.904;9.126;2023-06-19T10:26:38;98378.28;;;30.22;40.06
60820;BME280;46641;48.904;9.126;2023-06-19T10:31:28;98390.56;;;30.48;39.78
60820;BME280;46641;48.904;9.126;2023-06-19T10:36:21;98374.44;;;30.67;39.88
60820;BME280;46641;48.904;9.126;2023-06-19T10:41:21;98384.63;;;30.86;39.75
60820;BME280;46641;48.904;9.126;2023-06-19T10:46:12;98369.91;;;30.97;39.43
60820;BME280;46641;48.904;9.126;2023-06-19T10:51:03;98368.75;;;31.08;39.52
60820;BME280;46641;48.904;9.126;2023-06-19T10:55:55;98358.13;;;31.17;39.55
60820;BME280;46641;48.904;9.126;2023-06-19T11:00:46;98360.41;;;31.29;38.20
60820;BME280;46641;48.904;9.126;2023-06-19T11:05:36;98355.78;;;31.05;37.14
60820;BME280;46641;48.904;9.126;2023-06-19T11:10:28;98353.28;;;30.85;37.21
60820;BME280;46641;48.904;9.126;2023-06-19T11:15:19;98349.03;;;31.03;39.23
60820;BME280;46641;48.904;9.126;2023-06-19T11:20:12;98348.44;;;31.40;39.21
60820;BME280;46641;48.904;9.126;2023-06-19T11:25:04;98338.97;;;31.61;38.92
60820;BME280;46641;48.904;9.126;2023-06-19T11:29:56;98331.59;;;31.67;37.20
60820;BME280;46641;48.904;9.126;2023-06-19T11:34:48;98342.38;;;31.48;39.04
60820;BME280;46641;48.904;9.126;2023-06-19T11:39:38;98334.41;;;31.81;38.90
60820;BME280;46641;48.904;9.126;2023-06-19T11:44:29;98329.25;;;32.03;38.79
60820;BME280;46641;48.904;9.126;2023-06-19T11:49:20;98335.25;;;32.19;38.99
60820;BME280;46641;48.904;9.126;2023-06-19T11:54:12;98331.00;;;32.32;38.93
60820;BME280;46641;48.904;9.126;2023-06-19T11:59:05;98333.88;;;32.41;38.61
60820;BME280;46641;48.904;9.126;2023-06-19T12:03:55;98326.19;;;32.48;38.56
60820;BME280;46641;48.904;9.126;2023-06-19T12:08:46;98311.47;;;32.54;38.60
60820;BME280;46641;48.904;9.126;2023-06-19T12:13:36;98317.59;;;32.59;38.41
60820;BME280;46641;48.904;9.126;2023-06-19T12:18:26;98316.41;;;32.66;38.46
60820;BME280;46641;48.904;9.126;2023-06-19T12:23:16;98309.31;;;32.70;38.23
60820;BME280;46641;48.904;9.126;2023-06-19T12:28:07;98306.50;;;32.75;38.13
60820;BME280;46641;48.904;9.126;2023-06-19T12:32:58;98298.56;;;32.78;37.77
60820;BME280;46641;48.904;9.126;2023-06-19T12:37:48;98286.84;;;32.83;37.88
60820;BME280;46641;48.904;9.126;2023-06-19T12:42:39;98300.88;;;32.85;37.93
60820;BME280;46641;48.904;9.126;2023-06-19T12:47:29;98292.66;;;32.90;37.30
60820;BME280;46641;48.904;9.126;2023-06-19T12:52:19;98296.97;;;32.91;37.51
60820;BME280;46641;48.904;9.126;2023-06-19T12:57:10;98294.47;;;32.95;37.63
60820;BME280;46641;48.904;9.126;2023-06-19T13:02:00;98286.56;;;32.98;37.23
60820;BME280;46641;48.904;9.126;2023-06-19T13:06:50;98276.75;;;33.02;37.60
60820;BME280;46641;48.904;9.126;2023-06-19T13:11:41;98269.91;;;33.05;37.24
60820;BME280;46641;48.904;9.126;2023-06-19T13:16:31;98268.50;;;33.08;36.98
60820;BME280;46641;48.904;9.126;2023-06-19T13:21:21;98256.25;;;33.10;37.25
60820;BME280;46641;48.904;9.126;2023-06-19T13:26:12;98256.97;;;32.69;36.32
60820;BME280;46641;48.904;9.126;2023-06-19T13:31:03;98257.63;;;32.80;34.19
60820;BME280;46641;48.904;9.126;2023-06-19T13:35:53;98252.00;;;32.90;34.98
60820;BME280;46641;48.904;9.126;2023-06-19T13:40:44;98240.03;;;32.91;35.77
60820;BME280;46641;48.904;9.126;2023-06-19T13:45:34;98235.47;;;33.06;36.09
60820;BME280;46641;48.904;9.126;2023-06-19T13:50:24;98237.19;;;33.15;36.13
60820;BME280;46641;48.904;9.126;2023-06-19T13:55:15;98232.16;;;33.22;35.94
60820;BME280;46641;48.904;9.126;2023-06-19T14:00:07;98231.84;;;33.24;35.79
60820;BME280;46641;48.904;9.126;2023-06-19T14:04:57;98225.50;;;33.28;35.67
60820;BME280;46641;48.904;9.126;2023-06-19T14:09:48;98218.47;;;33.27;36.19
60820;BME280;46641;48.904;9.126;2023-06-19T14:14:38;98215.94;;;33.31;36.20
60820;BME280;46641;48.904;9.126;2023-06-19T14:19:28;98205.41;;;33.30;35.99
60820;BME280;46641;48.904;9.126;2023-06-19T14:24:19;98218.66;;;33.31;36.02
60820;BME280;46641;48.904;9.126;2023-06-19T14:29:09;98204.28;;;33.31;35.55
60820;BME280;46641;48.904;9.126;2023-06-19T14:33:59;98190.44;;;33.32;36.25
60820;BME280;46641;48.904;9.126;2023-06-19T14:38:50;98193.94;;;33.33;35.51
60820;BME280;46641;48.904;9.126;2023-06-19T14:43:40;98192.84;;;33.34;35.70
60820;BME280;46641;48.904;9.126;2023-06-19T14:48:30;98183.09;;;33.33;36.29
60820;BME280;46641;48.904;9.126;2023-06-19T14:53:21;98183.91;;;33.33;35.87
60820;BME280;46641;48.904;9.126;2023-06-19T14:58:13;98174.63;;;33.34;36.01
60820;BME280;46641;48.904;9.126;2023-06-19T15:03:03;98172.44;;;33.36;35.41
60820;BME280;46641;48.904;9.126;2023-06-19T15:07:54;98168.59;;;33.37;35.87
60820;BME280;46641;48.904;9.126;2023-06-19T15:12:44;98167.50;;;33.38;35.31
60820;BME280;46641;48.904;9.126;2023-06-19T15:17:34;98158.75;;;33.41;35.42
60820;BME280;46641;48.904;9.126;2023-06-19T15:22:25;98161.97;;;33.43;35.80
60820;BME280;46641;48.904;9.126;2023-06-19T15:27:15;98157.94;;;33.41;35.96
60820;BME280;46641;48.904;9.126;2023-06-19T15:32:05;98142.78;;;33.40;35.75
60820;BME280;46641;48.904;9.126;2023-06-19T15:36:56;98143.56;;;33.40;35.39
60820;BME280;46641;48.904;9.126;2023-06-19T15:41:46;98157.94;;;33.41;35.70
60820;BME280;46641;48.904;9.126;2023-06-19T15:46:36;98159.38;;;33.38;35.88
60820;BME280;46641;48.904;9.126;2023-06-19T15:51:27;98152.94;;;33.34;35.55
60820;BME280;46641;48.904;9.126;2023-06-19T15:56:17;98158.69;;;33.33;35.68
60820;BME280;46641;48.904;9.126;2023-06-19T16:01:07;98160.69;;;33.27;35.59
60820;BME280;46641;48.904;9.126;2023-06-19T16:05:58;98154.97;;;33.15;34.86
60820;BME280;46641;48.904;9.126;2023-06-19T16:10:48;98166.16;;;32.99;35.76
60820;BME280;46641;48.904;9.126;2023-06-19T16:15:38;98189.84;;;33.08;35.27
60820;BME280;46641;48.904;9.126;2023-06-19T16:20:29;98184.16;;;33.09;35.25
60820;BME280;46641;48.904;9.126;2023-06-19T16:25:19;98168.66;;;33.10;34.94
60820;BME280;46641;48.904;9.126;2023-06-19T16:30:10;98172.28;;;33.05;35.17
60820;BME280;46641;48.904;9.126;2023-06-19T16:35:00;98185.03;;;33.04;34.92
60820;BME280;46641;48.904;9.126;2023-06-19T16:39:50;98165.06;;;33.00;34.57
60820;BME280;46641;48.904;9.126;2023-06-19T16:44:41;98164.06;;;32.96;35.09
60820;BME280;46641;48.904;9.126;2023-06-19T16:49:31;98168.16;;;32.94;34.83
60820;BME280;46641;48.904;9.126;2023-06-19T16:54:22;98176.09;;;32.90;34.78
60820;BME280;46641;48.904;9.126;2023-06-19T16:59:12;98166.97;;;32.86;34.75
60820;BME280;46641;48.904;9.126;2023-06-19T17:04:02;98172.97;;;32.83;34.85
60820;BME280;46641;48.904;9.126;2023-06-19T17:08:53;98162.72;;;32.80;34.56
60820;BME280;46641;48.904;9.126;2023-06-19T17:13:44;98164.41;;;32.76;34.69
60820;BME280;46641;48.904;9.126;2023-06-19T17:18:34;98165.06;;;32.73;34.79
60820;BME280;46641;48.904;9.126;2023-06-19T17:23:25;98150.19;;;32.70;34.73
60820;BME280;46641;48.904;9.126;2023-06-19T17:28:15;98158.59;;;32.69;34.51
60820;BME280;46641;48.904;9.126;2023-06-19T17:33:05;98165.72;;;32.65;35.29
60820;BME280;46641;48.904;9.126;2023-06-19T17:37:56;98165.03;;;32.59;34.86
60820;BME280;46641;48.904;9.126;2023-06-19T17:42:46;98174.88;;;32.55;35.50
60820;BME280;46641;48.904;9.126;2023-06-19T17:47:37;98171.94;;;32.51;35.21
60820;BME280;46641;48.904;9.126;2023-06-19T17:52:27;98171.75;;;32.48;34.77
60820;BME280;46641;48.904;9.126;2023-06-19T17:57:18;98171.00;;;32.42;35.47
60820;BME280;46641;48.904;9.126;2023-06-19T18:02:08;98187.06;;;32.39;34.92
60820;BME280;46641;48.904;9.126;2023-06-19T18:06:58;98193.06;;;32.35;34.69
60820;BME280;46641;48.904;9.126;2023-06-19T18:11:49;98203.69;;;32.32;34.67
60820;BME280;46641;48.904;9.126;2023-06-19T18:16:39;98207.31;;;32.27;34.79
60820;BME280;46641;48.904;9.126;2023-06-19T18:21:29;98208.69;;;32.25;34.95
60820;BME280;46641;48.904;9.126;2023-06-19T18:26:19;98201.44;;;32.20;34.79
60820;BME280;46641;48.904;9.126;2023-06-19T18:31:10;98186.88;;;32.16;35.02
60820;BME280;46641;48.904;9.126;2023-06-19T18:36:00;98187.78;;;32.11;35.13
60820;BME280;46641;48.904;9.126;2023-06-19T18:40:51;98172.94;;;32.09;35.98
60820;BME280;46641;48.904;9.126;2023-06-19T18:45:41;98174.13;;;32.03;36.05
60820;BME280;46641;48.904;9.126;2023-06-19T18:50:31;98174.78;;;31.95;36.63
60820;BME280;46641;48.904;9.126;2023-06-19T18:55:21;98159.44;;;31.90;35.95
60820;BME280;46641;48.904;9.126;2023-06-19T19:00:12;98164.09;;;31.84;35.35
60820;BME280;46641;48.904;9.126;2023-06-19T19:05:03;98164.97;;;31.80;35.97
60820;BME280;46641;48.904;9.126;2023-06-19T19:09:53;98164.13;;;31.65;37.61
60820;BME280;46641;48.904;9.126;2023-06-19T19:14:43;98176.34;;;31.63;37.10
60820;BME280;46641;48.904;9.126;2023-06-19T19:19:34;98175.53;;;31.62;37.35
60820;BME280;46641;48.904;9.126;2023-06-19T19:24:24;98177.72;;;31.60;36.97
60820;BME280;46641;48.904;9.126;2023-06-19T19:29:14;98182.91;;;31.57;38.29
60820;BME280;46641;48.904;9.126;2023-06-19T19:34:04;98187.59;;;31.51;39.01
60820;BME280;46641;48.904;9.126;2023-06-19T19:38:55;98176.34;;;31.44;38.81
60820;BME280;46641;48.904;9.126;2023-06-19T19:43:45;98198.88;;;31.39;38.72
60820;BME280;46641;48.904;9.126;2023-06-19T19:48:35;98204.59;;;31.33;38.26
60820;BME280;46641;48.904;9.126;2023-06-19T19:53:26;98199.03;;;31.24;38.11
60820;BME280;46641;48.904;9.126;2023-06-19T19:58:16;98206.91;;;31.20;38.34
60820;BME280;46641;48.904;9.126;2023-06-19T20:03:06;98216.69;;;31.16;39.52
60820;BME280;46641;48.904;9.126;2023-06-19T20:07:57;98212.44;;;31.10;39.22
60820;BME280;46641;48.904;9.126;2023-06-19T20:12:47;98214.41;;;31.05;38.25
60820;BME280;46641;48.904;9.126;2023-06-19T20:17:37;98209.84;;;31.00;38.00
60820;BME280;46641;48.904;9.126;2023-06-19T20:22:28;98213.13;;;30.97;39.00
60820;BME280;46641;48.904;9.126;2023-06-19T20:27:18;98210.50;;;30.92;37.31
60820;BME280;46641;48.904;9.126;2023-06-19T20:32:08;98216.47;;;30.89;37.39
60820;BME280;46641;48.904;9.126;2023-06-19T20:36:58;98228.44;;;30.83;37.92
60820;BME280;46641;48.904;9.126;2023-06-19T20:41:49;98229.31;;;30.78;36.70
60820;BME280;46641;48.904;9.126;2023-06-19T20:46:39;98230.91;;;30.74;36.59
60820;BME280;46641;48.904;9.126;2023-06-19T20:51:29;98220.66;;;30.71;36.68
60820;BME280;46641;48.904;9.126;2023-06-19T20:56:20;98212.63;;;30.66;36.80
60820;BME280;46641;48.904;9.126;2023-06-19T21:01:10;98220.50;;;30.62;36.81
60820;BME280;46641;48.904;9.126;2023-06-19T21:06:00;98212.44;;;30.57;36.57
60820;BME280;46641;48.904;9.126;2023-06-19T21:10:52;98202.50;;;30.53;36.86
60820;BME280;46641;48.904;9.126;2023-06-19T21:15:43;98204.44;;;30.47;36.71
60820;BME280;46641;48.904;9.126;2023-06-19T21:20:33;98211.50;;;30.43;36.48
60820;BME280;46641;48.904;9.126;2023-06-19T21:25:23;98217.75;;;30.38;36.88
60820;BME280;46641;48.904;9.126;2023-06-19T21:30:14;98208.91;;;30.33;36.79
60820;BME280;46641;48.904;9.126;2023-06-19T21:35:04;98201.63;;;30.28;36.51
60820;BME280;46641;48.904;9.126;2023-06-19T21:39:55;98190.59;;;30.24;36.84
60820;BME280;46641;48.904;9.126;2023-06-19T21:44:45;98185.25;;;30.19;36.88
60820;BME280;46641;48.904;9.126;2023-06-19T21:49:35;98175.25;;;30.15;36.88
60820;BME280;46641;48.904;9.126;2023-06-19T21:54:26;98178.03;;;30.10;36.72
60820;BME280;46641;48.904;9.126;2023-06-19T21:59:16;98170.25;;;30.03;37.01
60820;BME280;46641;48.904;9.126;2023-06-19T22:04:06;98164.31;;;30.01;36.54
60820;BME280;46641;48.904;9.126;2023-06-19T22:08:57;98156.25;;;29.96;36.66
60820;BME280;46641;48.904;9.126;2023-06-19T22:13:49;98155.50;;;29.90;36.96
60820;BME280;46641;48.904;9.126;2023-06-19T22:18:40;98153.66;;;29.86;37.06
60820;BME280;46641;48.904;9.126;2023-06-19T22:23:30;98149.09;;;29.81;37.07
60820;BME280;46641;48.904;9.126;2023-06-19T22:28:20;98141.03;;;29.76;37.31
60820;BME280;46641;48.904;9.126;2023-06-19T22:33:11;98132.16;;;29.70;37.03
60820;BME280;46641;48.904;9.126;2023-06-19T22:38:01;98130.31;;;29.66;37.20
60820;BME280;46641;48.904;9.126;2023-06-19T22:42:51;98128.47;;;29.61;37.25
60820;BME280;46641;48.904;9.126;2023-06-19T22:47:42;98119.28;;;29.57;37.05
60820;BME280;46641;48.904;9.126;2023-06-19T22:52:34;98112.06;;;29.47;37.25
60820;BME280;46641;48.904;9.126;2023-06-19T22:57:24;98112.91;;;29.48;37.43
60820;BME280;46641;48.904;9.126;2023-06-19T23:02:15;98121.03;;;29.43;37.42
60820;BME280;46641;48.904;9.126;2023-06-19T23:07:05;98116.19;;;29.40;37.08
60820;BME280;46641;48.904;9.126;2023-06-19T23:11:56;98110.00;;;29.34;37.24
60820;BME280;46641;48.904;9.126;2023-06-19T23:16:46;98093.59;;;29.30;37.53
60820;BME280;46641;48.904;9.126;2023-06-19T23:21:39;98105.22;;;29.26;37.34
60820;BME280;46641;48.904;9.126;2023-06-19T23:26:29;98101.47;;;29.22;37.30
60820;BME280;46641;48.904;9.126;2023-06-19T23:31:20;98096.91;;;29.17;37.12
60820;BME280;46641;48.904;9.126;2023-06-19T23:36:13;98092.38;;;29.13;37.28
60820;BME280;46641;48.904;9.126;2023-06-19T23:41:03;98087.78;;;29.08;37.35
60820;BME280;46641;48.904;9.126;2023-06-19T23:45:53;98092.13;;;29.04;37.19
60820;BME280;46641;48.904;9.126;2023-06-19T23:50:43;98094.28;;;29.02;37.38
60820;BME280;46641;48.904;9.126;2023-06-19T23:55:34;98100.50;;;28.97;37.74
